createdAt,value
2023-05-10T00:00:47.688Z,28.52
2023-05-10T00:03:18.292Z,28.82
2023-05-10T00:05:48.460Z,28.69
2023-05-10T00:08:18.564Z,28.58
2023-05-10T00:10:48.740Z,28.50
2023-05-10T00:13:19.335Z,28.74
2023-05-10T00:15:49.557Z,28.89
2023-05-10T00:18:19.684Z,28.83
2023-05-10T00:20:49.985Z,28.74
2023-05-10T00:23:20.159Z,28.83
2023-05-10T00:25:50.726Z,28.89
2023-05-10T00:28:20.940Z,29.06
2023-05-10T00:30:54.005Z,29.13
2023-05-10T00:33:24.983Z,28.93
2023-05-10T00:35:55.124Z,28.90
2023-05-10T00:38:25.766Z,29.21
2023-05-10T00:40:55.983Z,29.17
2023-05-10T00:43:26.518Z,29.17
2023-05-10T00:45:57.009Z,28.92
2023-05-10T00:48:27.245Z,29.14
2023-05-10T00:50:58.395Z,29.24
2023-05-10T00:53:38.451Z,29.62
2023-05-10T00:56:11.776Z,29.42
2023-05-10T00:58:42.193Z,29.81
2023-05-10T01:01:15.397Z,29.81
2023-05-10T01:03:45.959Z,29.66
2023-05-10T01:06:16.128Z,29.59
2023-05-10T01:08:47.451Z,29.46
2023-05-10T01:11:17.729Z,29.68
2023-05-10T01:13:56.780Z,30.62
2023-05-10T01:16:31.198Z,29.56
2023-05-10T01:19:02.034Z,29.72
2023-05-10T01:21:49.543Z,29.76
2023-05-10T01:24:28.378Z,30.26
2023-05-10T01:27:20.021Z,30.13
2023-05-10T01:30:14.976Z,30.41
2023-05-10T01:33:13.096Z,31.76
2023-05-10T01:35:56.328Z,30.15
2023-05-10T01:38:58.888Z,30.63
2023-05-10T01:41:34.831Z,30.32
2023-05-10T01:44:24.781Z,31.17
2023-05-10T01:47:03.038Z,30.45
2023-05-10T01:49:42.719Z,30.96
2023-05-10T01:52:15.191Z,30.33
2023-05-10T01:54:57.020Z,30.70
2023-05-10T01:57:32.494Z,30.22
2023-05-10T02:00:05.469Z,30.56
2023-05-10T02:02:38.911Z,30.84
2023-05-10T02:05:10.432Z,30.32
2023-05-10T02:07:41.781Z,30.30
2023-05-10T02:10:13.373Z,30.21
2023-05-10T02:12:47.210Z,30.55
2023-05-10T02:15:22.405Z,30.63
2023-05-10T02:17:55.709Z,30.24
2023-05-10T02:20:26.749Z,30.73
2023-05-10T02:22:59.176Z,30.84
2023-05-10T02:25:31.105Z,30.43
2023-05-10T02:28:05.559Z,30.95
2023-05-10T02:30:36.316Z,30.46
2023-05-10T02:33:07.051Z,30.85
2023-05-10T02:35:38.830Z,30.58
2023-05-10T02:38:10.389Z,30.37
2023-05-10T02:40:43.653Z,30.76
2023-05-10T02:43:17.532Z,30.95
2023-05-10T02:45:49.368Z,31.29
2023-05-10T02:48:19.574Z,30.73
2023-05-10T02:50:53.776Z,31.02
2023-05-10T02:53:32.306Z,30.62
2023-05-10T02:56:08.989Z,30.67
2023-05-10T02:58:38.919Z,32.56
2023-05-10T03:01:09.298Z,30.79
2023-05-10T03:03:39.492Z,30.57
2023-05-10T03:06:10.721Z,30.53
2023-05-10T03:08:41.175Z,30.82
2023-05-10T03:11:36.831Z,32.15
2023-05-10T03:14:44.020Z,32.08
2023-05-10T03:17:17.221Z,30.75
2023-05-10T03:19:57.544Z,31.35
2023-05-10T03:22:45.651Z,31.99
2023-05-10T03:25:17.715Z,30.69
2023-05-10T03:27:48.444Z,31.15
2023-05-10T03:30:19.747Z,30.64
2023-05-10T03:32:50.010Z,30.77
2023-05-10T03:35:20.265Z,30.56
2023-05-10T03:37:50.439Z,30.62
2023-05-10T03:40:20.575Z,30.53
2023-05-10T03:42:50.710Z,30.55
2023-05-10T03:45:21.194Z,30.85
2023-05-10T03:47:51.567Z,30.39
2023-05-10T03:50:22.248Z,30.50
2023-05-10T03:52:54.099Z,30.43
2023-05-10T03:55:25.119Z,30.43
2023-05-10T03:57:55.401Z,30.26
2023-05-10T04:00:25.495Z,30.91
2023-05-10T04:02:55.684Z,30.87
2023-05-10T04:05:25.831Z,30.66
2023-05-10T04:07:56.017Z,30.74
2023-05-10T04:10:26.203Z,30.71
2023-05-10T04:12:56.576Z,30.58
2023-05-10T04:15:26.693Z,30.72
2023-05-10T04:17:57.057Z,30.55
2023-05-10T04:20:27.113Z,30.73
2023-05-10T04:22:57.304Z,30.55
2023-05-10T04:25:27.423Z,30.78
2023-05-10T04:27:57.580Z,30.99
2023-05-10T04:30:29.659Z,31.06
2023-05-10T04:33:01.156Z,31.08
2023-05-10T04:35:31.434Z,31.12
2023-05-10T04:38:04.931Z,31.51
2023-05-10T04:40:35.539Z,31.14
2023-05-10T04:43:05.766Z,30.88
2023-05-10T04:45:35.924Z,30.81
2023-05-10T04:48:06.685Z,31.09
2023-05-10T04:50:36.885Z,31.06
2023-05-10T04:53:07.004Z,30.86
2023-05-10T04:55:37.104Z,31.39
2023-05-10T04:58:07.259Z,31.15
2023-05-10T05:00:37.427Z,31.31
2023-05-10T05:03:07.627Z,31.18
2023-05-10T05:05:37.952Z,31.30
2023-05-10T05:08:08.109Z,31.32
2023-05-10T05:10:38.324Z,31.36
2023-05-10T05:13:08.525Z,31.29
2023-05-10T05:15:38.851Z,31.30
2023-05-10T05:18:09.147Z,31.26
2023-05-10T05:20:39.416Z,31.41
2023-05-10T05:23:09.577Z,31.05
2023-05-10T05:25:40.001Z,30.97
2023-05-10T05:28:10.227Z,31.13
2023-05-10T05:30:40.397Z,31.61
2023-05-10T05:33:10.535Z,31.49
2023-05-10T05:35:40.720Z,31.00
2023-05-10T05:38:10.965Z,31.17
2023-05-10T05:40:41.221Z,31.35
2023-05-10T05:43:11.420Z,31.06
2023-05-10T05:45:42.000Z,31.15
2023-05-10T05:48:12.490Z,31.11
2023-05-10T05:50:42.806Z,31.14
2023-05-10T05:53:13.853Z,31.20
2023-05-10T05:55:58.408Z,32.33
2023-05-10T05:58:29.157Z,31.15
2023-05-10T06:00:59.245Z,31.07
2023-05-10T06:03:29.533Z,31.20
2023-05-10T06:05:59.720Z,31.27
2023-05-10T06:08:29.834Z,30.70
2023-05-10T06:10:59.961Z,30.87
2023-05-10T06:13:33.310Z,30.73
2023-05-10T06:16:04.297Z,30.56
2023-05-10T06:18:35.003Z,30.61
2023-05-10T06:21:05.430Z,30.67
2023-05-10T06:23:35.765Z,30.50
2023-05-10T06:26:05.986Z,30.44
2023-05-10T06:28:36.350Z,30.50
2023-05-10T06:31:07.915Z,30.02
2023-05-10T06:33:38.077Z,30.29
2023-05-10T06:36:08.462Z,30.14
2023-05-10T06:38:38.524Z,29.93
2023-05-10T06:41:09.295Z,29.95
2023-05-10T06:43:42.479Z,29.64
2023-05-10T06:46:12.611Z,29.70
2023-05-10T06:48:42.832Z,29.83
2023-05-10T06:51:12.955Z,29.61
2023-05-10T06:53:43.088Z,29.66
2023-05-10T06:56:13.165Z,29.85
2023-05-10T06:58:43.323Z,29.64
2023-05-10T07:01:13.506Z,29.44
2023-05-10T07:03:43.858Z,29.63
2023-05-10T07:06:29.394Z,29.56
2023-05-10T07:09:03.643Z,29.14
2023-05-10T07:11:33.854Z,29.13
2023-05-10T07:14:04.242Z,28.92
2023-05-10T07:16:34.500Z,29.09
2023-05-10T07:19:06.494Z,28.76
2023-05-10T07:21:45.912Z,28.65
2023-05-10T07:24:16.034Z,28.65
2023-05-10T07:26:54.192Z,28.75
2023-05-10T07:29:37.381Z,28.70
2023-05-10T07:32:23.916Z,28.26
2023-05-10T07:34:55.368Z,28.35
2023-05-10T07:37:25.802Z,28.48
2023-05-10T07:40:01.605Z,28.45
2023-05-10T07:42:37.488Z,28.25
2023-05-10T07:45:10.323Z,28.26
2023-05-10T07:47:40.488Z,28.03
2023-05-10T07:50:13.235Z,27.71
2023-05-10T07:52:43.411Z,27.90
2023-05-10T07:55:14.030Z,27.88
2023-05-10T07:57:44.593Z,27.67
2023-05-10T08:00:19.258Z,27.22
2023-05-10T08:02:50.312Z,27.37
2023-05-10T08:05:20.721Z,27.16
2023-05-10T08:07:51.484Z,27.38
2023-05-10T08:10:21.744Z,27.40
2023-05-10T08:12:54.259Z,26.76
2023-05-10T08:15:24.425Z,26.68
2023-05-10T08:17:54.814Z,26.62
2023-05-10T08:20:25.018Z,26.68
2023-05-10T08:22:55.319Z,26.74
2023-05-10T08:25:26.852Z,26.22
2023-05-10T08:27:57.079Z,26.29
2023-05-10T08:30:27.471Z,26.14
2023-05-10T08:32:57.678Z,26.11
2023-05-10T08:35:27.974Z,25.79
2023-05-10T08:37:58.736Z,25.68
2023-05-10T08:40:29.144Z,25.87
2023-05-10T08:43:12.307Z,25.33
2023-05-10T08:45:48.089Z,25.52
2023-05-10T08:48:18.808Z,25.69
2023-05-10T08:50:50.439Z,25.62
2023-05-10T08:53:22.256Z,25.73
2023-05-10T08:55:52.988Z,25.79
2023-05-10T08:58:23.194Z,25.55
2023-05-10T09:00:54.002Z,25.64
2023-05-10T09:03:24.438Z,25.59
2023-05-10T09:05:56.922Z,25.53
2023-05-10T09:08:28.117Z,25.20
2023-05-10T09:10:59.138Z,25.31
2023-05-10T09:13:29.893Z,25.31
2023-05-10T09:16:09.848Z,25.04
2023-05-10T09:18:45.746Z,25.39
2023-05-10T09:21:15.956Z,25.10
2023-05-10T09:23:48.515Z,24.87
2023-05-10T09:26:23.966Z,24.83
2023-05-10T09:28:55.061Z,24.84
2023-05-10T09:31:28.696Z,25.00
2023-05-10T09:33:58.972Z,25.03
2023-05-10T09:36:29.173Z,24.68
2023-05-10T09:38:59.314Z,24.80
2023-05-10T09:41:29.940Z,24.41
2023-05-10T09:44:00.124Z,24.79
2023-05-10T09:46:30.665Z,24.73
2023-05-10T09:49:00.822Z,24.71
2023-05-10T09:51:31.060Z,24.51
2023-05-10T09:54:16.166Z,24.05
2023-05-10T09:56:46.498Z,24.51
2023-05-10T09:59:16.619Z,24.45
2023-05-10T10:01:53.333Z,23.95
2023-05-10T10:04:23.574Z,24.21
2023-05-10T10:07:01.880Z,23.88
2023-05-10T10:09:33.188Z,24.31
2023-05-10T10:12:05.779Z,24.43
2023-05-10T10:14:36.356Z,24.16
2023-05-10T10:17:08.953Z,23.90
2023-05-10T10:19:39.435Z,23.82
2023-05-10T10:22:11.897Z,23.80
2023-05-10T10:24:42.205Z,23.91
2023-05-10T10:28:04.398Z,23.59
2023-05-10T10:30:48.519Z,23.69
2023-05-10T10:33:58.123Z,23.45
2023-05-10T10:36:28.469Z,23.95
2023-05-10T10:39:03.155Z,23.98
2023-05-10T10:41:38.440Z,23.54
2023-05-10T10:44:41.547Z,23.15
2023-05-10T10:47:13.000Z,23.56
2023-05-10T10:49:52.961Z,23.25
2023-05-10T10:52:39.862Z,23.15
2023-05-10T10:55:15.243Z,22.43
2023-05-10T10:57:53.605Z,22.75
2023-05-10T11:00:32.509Z,22.42
2023-05-10T11:03:13.269Z,22.74
2023-05-10T11:05:45.580Z,22.86
2023-05-10T11:08:18.723Z,22.73
2023-05-10T11:10:54.623Z,22.22
2023-05-10T11:13:32.014Z,21.74
2023-05-10T11:16:11.440Z,21.71
2023-05-10T11:18:42.021Z,22.50
2023-05-10T11:21:12.235Z,22.09
2023-05-10T11:23:48.169Z,22.24
2023-05-10T11:26:19.221Z,22.14
2023-05-10T11:28:50.130Z,21.96
2023-05-10T11:31:21.399Z,22.23
2023-05-10T11:33:53.483Z,21.82
2023-05-10T11:36:34.086Z,20.49
2023-05-10T11:39:05.482Z,21.71
2023-05-10T11:41:35.908Z,21.58
2023-05-10T11:44:06.134Z,21.15
2023-05-10T11:46:38.243Z,21.26
2023-05-10T11:49:09.058Z,21.47
2023-05-10T11:51:40.470Z,21.33
2023-05-10T11:54:12.607Z,21.24
2023-05-10T11:56:42.856Z,21.28
2023-05-10T11:59:15.909Z,21.34
2023-05-10T12:01:46.281Z,21.56
2023-05-10T12:04:17.766Z,21.48
2023-05-10T12:06:48.340Z,21.58
2023-05-10T12:09:23.013Z,21.41
2023-05-10T12:12:03.635Z,21.32
2023-05-10T12:14:36.922Z,21.19
2023-05-10T12:17:07.068Z,21.39
2023-05-10T12:22:24.670Z,20.30
2023-05-10T12:24:54.841Z,20.02
2023-05-10T12:27:41.407Z,19.09
2023-05-10T12:30:12.250Z,18.79
2023-05-10T12:32:45.818Z,19.15
2023-05-10T12:35:17.111Z,18.70
2023-05-10T12:37:53.541Z,19.62
2023-05-10T12:40:23.821Z,19.07
2023-05-10T12:42:53.988Z,18.35
2023-05-10T12:45:24.301Z,17.82
2023-05-10T12:47:59.172Z,17.09
2023-05-10T12:50:29.301Z,17.12
2023-05-10T12:52:59.495Z,16.33
2023-05-10T12:55:32.767Z,15.28
2023-05-10T12:58:18.044Z,15.50
2023-05-10T13:01:04.275Z,13.74
2023-05-10T13:03:34.678Z,14.73
2023-05-10T13:06:07.171Z,14.94
2023-05-10T13:08:37.235Z,14.43
2023-05-10T13:11:07.539Z,13.63
2023-05-10T13:13:37.708Z,13.46
2023-05-10T13:16:07.968Z,12.73
2023-05-10T13:18:38.175Z,13.45
2023-05-10T13:21:08.753Z,12.85
2023-05-10T13:23:39.288Z,12.55
2023-05-10T13:26:09.421Z,12.33
2023-05-10T13:28:40.021Z,12.07
2023-05-10T13:31:10.257Z,11.66
2023-05-10T13:33:40.440Z,12.22
2023-05-10T13:36:10.638Z,11.76
2023-05-10T13:38:43.639Z,11.63
2023-05-10T13:41:13.676Z,11.60
2023-05-10T13:43:55.518Z,10.50
2023-05-10T13:46:25.762Z,11.29
2023-05-10T13:48:56.058Z,10.91
2023-05-10T13:51:28.959Z,10.89
2023-05-10T13:53:59.675Z,10.93
2023-05-10T13:56:29.850Z,10.66
2023-05-10T13:59:00.660Z,10.87
2023-05-10T14:01:30.810Z,10.41
2023-05-10T14:04:01.721Z,10.24
2023-05-10T14:06:32.001Z,10.43
2023-05-10T14:09:02.232Z,10.31
2023-05-10T14:11:32.393Z,10.20
2023-05-10T14:14:06.876Z,10.16
2023-05-10T14:16:37.145Z,8.51
2023-05-10T14:19:07.413Z,10.47
2023-05-10T14:21:49.927Z,9.67
2023-05-10T14:24:23.153Z,9.20
2023-05-10T14:26:55.033Z,10.09
2023-05-10T14:29:25.192Z,10.23
2023-05-10T14:32:15.626Z,9.91
2023-05-10T14:34:45.863Z,9.57
2023-05-10T14:37:16.598Z,9.96
2023-05-10T14:39:46.901Z,9.50
2023-05-10T14:42:17.305Z,9.45
2023-05-10T14:44:47.461Z,9.18
2023-05-10T14:47:17.567Z,9.57
2023-05-10T14:49:48.118Z,9.29
2023-05-10T14:52:18.562Z,9.92
2023-05-10T14:54:49.069Z,9.73
2023-05-10T14:57:19.209Z,9.86
2023-05-10T14:59:49.350Z,9.86
2023-05-10T15:02:20.004Z,10.23
2023-05-10T15:04:51.918Z,10.35
2023-05-10T15:07:22.822Z,10.83
2023-05-10T15:09:53.130Z,10.78
2023-05-10T15:12:23.503Z,10.73
2023-05-10T15:14:53.669Z,11.26
2023-05-10T15:17:23.864Z,11.63
2023-05-10T15:19:54.027Z,11.54
2023-05-10T15:22:24.326Z,12.12
2023-05-10T15:24:54.712Z,11.99
2023-05-10T15:27:24.803Z,12.16
2023-05-10T15:30:01.753Z,12.82
2023-05-10T15:32:32.221Z,12.87
2023-05-10T15:35:04.663Z,13.03
2023-05-10T15:37:34.840Z,13.45
2023-05-10T15:40:05.602Z,13.68
2023-05-10T15:42:35.766Z,14.04
2023-05-10T15:45:06.406Z,14.14
2023-05-10T15:47:36.602Z,14.59
2023-05-10T15:50:07.792Z,14.46
2023-05-10T15:52:38.265Z,14.95
2023-05-10T15:55:18.443Z,14.96
2023-05-10T15:57:48.938Z,14.83
2023-05-10T16:00:19.298Z,15.26
2023-05-10T16:02:49.632Z,15.32
2023-05-10T16:05:20.590Z,15.42
2023-05-10T16:07:53.405Z,15.84
2023-05-10T16:10:23.705Z,15.98
2023-05-10T16:12:55.050Z,15.83
2023-05-10T16:15:25.300Z,15.84
2023-05-10T16:17:55.532Z,16.67
2023-05-10T16:20:25.966Z,16.57
2023-05-10T16:22:56.313Z,16.46
2023-05-10T16:25:26.740Z,16.55
2023-05-10T16:27:56.884Z,16.81
2023-05-10T16:30:29.400Z,16.99
2023-05-10T16:33:01.562Z,17.27
2023-05-10T16:35:31.951Z,17.34
2023-05-10T16:38:02.598Z,17.34
2023-05-10T16:40:32.984Z,17.45
2023-05-10T16:43:03.368Z,17.72
2023-05-10T16:45:33.946Z,17.56
2023-05-10T16:48:06.435Z,17.91
2023-05-10T16:50:39.832Z,17.98
2023-05-10T16:53:11.907Z,17.93
2023-05-10T16:55:42.329Z,18.31
2023-05-10T16:58:12.425Z,18.50
2023-05-10T17:00:43.145Z,18.45
2023-05-10T17:03:19.965Z,19.12
2023-05-10T17:05:50.198Z,18.86
2023-05-10T17:08:22.309Z,19.04
2023-05-10T17:10:52.451Z,18.79
2023-05-10T17:13:22.589Z,18.96
2023-05-10T17:15:53.289Z,19.09
2023-05-10T17:18:24.085Z,19.34
2023-05-10T17:20:54.302Z,19.07
2023-05-10T17:23:24.552Z,19.63
2023-05-10T17:25:54.742Z,19.60
2023-05-10T17:28:24.897Z,19.82
2023-05-10T17:30:58.987Z,20.26
2023-05-10T17:33:29.119Z,20.02
2023-05-10T17:35:59.414Z,20.16
2023-05-10T17:38:30.873Z,20.35
2023-05-10T17:41:03.849Z,20.39
2023-05-10T17:43:34.053Z,20.37
2023-05-10T17:46:04.312Z,20.74
2023-05-10T17:48:36.774Z,20.50
2023-05-10T17:51:07.194Z,21.06
2023-05-10T17:53:37.605Z,20.68
2023-05-10T17:56:08.150Z,21.01
2023-05-10T17:58:39.050Z,21.34
2023-05-10T18:01:09.498Z,21.12
2023-05-10T18:03:40.058Z,21.51
2023-05-10T18:06:10.482Z,21.57
2023-05-10T18:08:42.246Z,21.58
2023-05-10T18:11:12.505Z,21.36
2023-05-10T18:13:42.664Z,21.59
2023-05-10T18:16:13.640Z,21.69
2023-05-10T18:18:43.927Z,21.76
2023-05-10T18:21:14.245Z,21.70
2023-05-10T18:23:44.850Z,21.81
2023-05-10T18:26:15.213Z,21.86
2023-05-10T18:28:45.324Z,21.77
2023-05-10T18:31:16.519Z,22.03
2023-05-10T18:33:46.934Z,22.12
2023-05-10T18:36:17.218Z,22.13
2023-05-10T18:38:47.580Z,22.20
2023-05-10T18:41:18.834Z,22.40
2023-05-10T18:43:49.050Z,22.46
2023-05-10T18:46:19.308Z,22.61
2023-05-10T18:48:49.433Z,22.70
2023-05-10T18:51:20.544Z,22.78
2023-05-10T18:53:50.751Z,22.90
2023-05-10T18:56:22.269Z,23.12
2023-05-10T18:58:52.814Z,23.11
2023-05-10T19:01:22.950Z,22.88
2023-05-10T19:03:53.126Z,23.07
2023-05-10T19:06:23.275Z,23.21
2023-05-10T19:08:54.906Z,23.07
2023-05-10T19:11:25.158Z,23.15
2023-05-10T19:13:55.270Z,23.49
2023-05-10T19:16:26.153Z,23.32
2023-05-10T19:18:57.700Z,23.40
2023-05-10T19:21:28.011Z,23.52
2023-05-10T19:23:58.481Z,23.73
2023-05-10T19:26:28.769Z,23.64
2023-05-10T19:29:02.466Z,23.74
2023-05-10T19:31:33.754Z,23.96
2023-05-10T19:34:05.977Z,23.86
2023-05-10T19:36:36.185Z,23.92
2023-05-10T19:39:06.388Z,23.91
2023-05-10T19:41:37.381Z,23.97
2023-05-10T19:44:07.772Z,23.98
2023-05-10T19:46:38.038Z,24.09
2023-05-10T19:49:08.222Z,24.15
2023-05-10T19:51:38.447Z,23.99
2023-05-10T19:54:08.679Z,24.02
2023-05-10T19:56:38.825Z,24.18
2023-05-10T19:59:09.825Z,24.18
2023-05-10T20:01:40.097Z,24.26
2023-05-10T20:04:10.489Z,24.22
2023-05-10T20:06:40.771Z,24.10
2023-05-10T20:09:10.889Z,24.32
2023-05-10T20:11:41.054Z,24.41
2023-05-10T20:14:11.244Z,24.48
2023-05-10T20:16:41.763Z,24.48
2023-05-10T20:19:12.592Z,24.61
2023-05-10T20:21:42.981Z,24.53
2023-05-10T20:24:13.207Z,24.42
2023-05-10T20:26:43.324Z,24.75
2023-05-10T20:29:13.514Z,24.68
2023-05-10T20:31:43.737Z,24.63
2023-05-10T20:34:14.031Z,24.80
2023-05-10T20:36:44.108Z,24.82
2023-05-10T20:39:15.064Z,24.83
2023-05-10T20:41:45.202Z,24.97
2023-05-10T20:44:15.440Z,24.72
2023-05-10T20:46:45.554Z,25.15
2023-05-10T20:49:15.767Z,24.85
2023-05-10T20:51:45.897Z,25.12
2023-05-10T20:54:16.144Z,25.01
2023-05-10T20:56:46.270Z,25.07
2023-05-10T20:59:16.479Z,25.20
2023-05-10T21:01:46.601Z,25.15
2023-05-10T21:04:16.888Z,25.11
2023-05-10T21:06:47.019Z,25.40
2023-05-10T21:09:17.778Z,25.26
2023-05-10T21:11:48.190Z,25.47
2023-05-10T21:14:18.444Z,25.52
2023-05-10T21:16:48.707Z,25.44
2023-05-10T21:19:19.233Z,25.60
2023-05-10T21:21:49.356Z,25.64
2023-05-10T21:24:19.542Z,25.42
2023-05-10T21:26:49.683Z,25.71
2023-05-10T21:29:20.061Z,25.80
2023-05-10T21:31:50.291Z,25.74
2023-05-10T21:34:21.138Z,25.72
2023-05-10T21:36:51.232Z,25.81
2023-05-10T21:39:21.361Z,25.75
2023-05-10T21:41:51.438Z,25.83
2023-05-10T21:44:21.732Z,25.58
2023-05-10T21:46:51.889Z,25.98
2023-05-10T21:49:22.150Z,25.90
2023-05-10T21:51:52.282Z,25.84
2023-05-10T21:54:22.523Z,26.12
2023-05-10T21:56:52.768Z,26.10
2023-05-10T21:59:23.485Z,26.23
2023-05-10T22:01:53.556Z,26.00
2023-05-10T22:04:23.706Z,26.05
2023-05-10T22:06:53.851Z,26.29
2023-05-10T22:09:25.511Z,26.14
2023-05-10T22:11:55.814Z,26.21
2023-05-10T22:14:25.993Z,26.22
2023-05-10T22:16:57.870Z,25.97
2023-05-10T22:19:28.025Z,26.32
2023-05-10T22:21:58.241Z,26.21
2023-05-10T22:24:28.435Z,26.26
2023-05-10T22:26:58.512Z,26.10
2023-05-10T22:29:29.452Z,26.22
2023-05-10T22:31:59.615Z,26.25
2023-05-10T22:34:29.731Z,26.38
2023-05-10T22:36:59.999Z,26.46
2023-05-10T22:39:30.198Z,26.42
2023-05-10T22:42:00.387Z,26.49
2023-05-10T22:44:30.650Z,26.54
2023-05-10T22:47:00.839Z,26.41
2023-05-10T22:49:32.062Z,26.52
2023-05-10T22:52:02.551Z,26.61
2023-05-10T22:54:33.769Z,26.51
2023-05-10T22:57:06.209Z,26.54
2023-05-10T22:59:36.748Z,26.73
2023-05-10T23:02:07.051Z,26.88
2023-05-10T23:04:37.393Z,26.90
2023-05-10T23:07:07.703Z,26.65
2023-05-10T23:09:37.862Z,26.78
2023-05-10T23:12:08.102Z,26.80
2023-05-10T23:14:38.294Z,27.04
2023-05-10T23:17:08.945Z,26.96
2023-05-10T23:19:39.182Z,26.98
2023-05-10T23:22:10.112Z,27.08
2023-05-10T23:24:41.388Z,27.01
2023-05-10T23:27:11.539Z,27.22
2023-05-10T23:29:42.366Z,27.19
2023-05-10T23:32:12.589Z,27.22
2023-05-10T23:34:42.812Z,27.29
2023-05-10T23:37:12.957Z,27.26
2023-05-10T23:39:43.119Z,27.34
2023-05-10T23:42:13.304Z,27.24
2023-05-10T23:44:43.437Z,27.19
2023-05-10T23:47:13.689Z,27.33
2023-05-10T23:49:43.863Z,27.22
2023-05-10T23:52:14.228Z,27.31
2023-05-10T23:54:45.943Z,27.22
2023-05-10T23:57:16.228Z,27.45
2023-05-10T23:59:46.739Z,27.49
